Time;durP1;ratioP1;P1;durP2;ratioP2;P2;SDS_P1;SDS_P2;PMS_P1;PMS_P2;Temp;Humidity;BMP_temperature;BMP_pressure;BME280_temperature;BME280_humidity;BME280_pressure;Samples;Min_cycle;Max_cycle;Signal;HPM_P1;HPM_P2
2022/03/26 00:02:08;;;;;;;24.50;14.40;;;10.70;99.90;;;;;;4976547;28;20312;-54
2022/03/26 00:04:36;;;;;;;24.73;12.60;;;10.70;99.90;;;;;;4973454;28;20233;-53
2022/03/26 00:07:03;;;;;;;24.13;12.57;;;10.60;99.90;;;;;;4973736;28;20273;-52
2022/03/26 00:09:30;;;;;;;23.97;13.67;;;10.60;99.90;;;;;;4975503;28;20202;-52
2022/03/26 00:11:56;;;;;;;27.90;12.80;;;10.70;99.90;;;;;;4977988;28;20280;-50
2022/03/26 00:14:24;;;;;;;20.90;12.50;;;10.60;99.90;;;;;;4975933;28;20585;-53
2022/03/26 00:16:50;;;;;;;24.23;13.30;;;10.50;99.90;;;;;;4978210;28;20207;-53
2022/03/26 00:19:17;;;;;;;23.00;12.03;;;10.50;99.90;;;;;;4960786;28;20209;-52
2022/03/26 00:21:47;;;;;;;26.37;12.63;;;10.60;99.90;;;;;;4974286;28;20213;-51
2022/03/26 00:24:14;;;;;;;22.13;13.20;;;10.50;99.90;;;;;;4977617;28;20238;-50
2022/03/26 00:26:41;;;;;;;22.03;12.93;;;10.40;99.90;;;;;;4973345;28;20235;-52
2022/03/26 00:29:09;;;;;;;21.00;12.53;;;10.60;99.90;;;;;;4977395;28;20292;-50
2022/03/26 00:31:37;;;;;;;24.23;12.23;;;10.50;99.90;;;;;;4979105;28;20205;-52
2022/03/26 00:34:09;;;;;;;21.63;13.10;;;10.50;99.90;;;;;;4975025;28;20312;-51
2022/03/26 00:36:35;;;;;;;21.40;12.60;;;10.40;99.90;;;;;;4977753;28;20708;-51
2022/03/26 00:39:03;;;;;;;21.60;12.57;;;10.40;99.90;;;;;;4974760;28;20434;-53
2022/03/26 00:41:30;;;;;;;19.83;11.53;;;10.30;1.00;;;;;;4975893;28;20253;-52
2022/03/26 00:43:57;;;;;;;26.53;13.90;;;10.40;1.00;;;;;;4975609;28;20672;-51
2022/03/26 00:46:24;;;;;;;23.87;12.20;;;10.40;99.90;;;;;;4977047;28;20708;-51
2022/03/26 00:48:51;;;;;;;20.13;13.87;;;10.40;1.00;;;;;;4977190;28;20296;-50
2022/03/26 00:51:18;;;;;;;25.43;13.30;;;10.30;1.00;;;;;;4978944;28;20210;-52
2022/03/26 00:53:45;;;;;;;18.93;12.10;;;10.30;1.00;;;;;;4979551;28;20272;-51
2022/03/26 00:56:12;;;;;;;26.63;12.63;;;10.30;1.00;;;;;;4975325;28;20217;-52
2022/03/26 00:58:40;;;;;;;23.63;12.87;;;10.20;1.00;;;;;;4971469;28;20422;-51
2022/03/26 01:01:07;;;;;;;25.60;13.03;;;10.30;1.00;;;;;;4980072;28;20744;-51
2022/03/26 01:03:35;;;;;;;22.90;12.23;;;10.20;1.00;;;;;;4976035;28;20206;-51
2022/03/26 01:06:03;;;;;;;29.50;13.10;;;10.10;1.00;;;;;;4979631;28;20225;-51
2022/03/26 01:08:31;;;;;;;24.43;11.60;;;10.20;1.00;;;;;;4971993;28;20327;-53
2022/03/26 01:10:59;;;;;;;25.67;12.87;;;10.10;1.00;;;;;;4975586;28;20209;-54
2022/03/26 01:13:27;;;;;;;32.27;14.07;;;10.00;1.00;;;;;;4977494;28;20265;-52
2022/03/26 01:15:54;;;;;;;22.13;12.37;;;10.00;1.00;;;;;;4977153;28;20207;-51
2022/03/26 01:18:22;;;;;;;24.27;12.57;;;9.90;1.00;;;;;;4980817;28;20272;-53
2022/03/26 01:20:49;;;;;;;25.53;11.90;;;10.00;1.00;;;;;;4977652;28;20233;-52
2022/03/26 01:23:19;;;;;;;23.37;11.57;;;9.90;1.00;;;;;;4976992;28;20770;-52
2022/03/26 01:25:47;;;;;;;22.33;12.93;;;9.90;1.00;;;;;;4978493;28;20677;-53
2022/03/26 01:28:14;;;;;;;19.80;12.33;;;9.90;1.00;;;;;;4976700;28;20284;-51
2022/03/26 01:30:41;;;;;;;25.13;12.53;;;9.90;1.00;;;;;;4972060;28;20653;-51
2022/03/26 01:33:08;;;;;;;24.83;13.17;;;9.80;1.00;;;;;;4974862;28;20460;-51
2022/03/26 01:35:35;;;;;;;21.73;11.77;;;9.80;1.00;;;;;;4974770;28;20277;-52
2022/03/26 01:38:04;;;;;;;22.63;13.17;;;9.90;1.00;;;;;;4974816;28;20315;-51
2022/03/26 01:40:33;;;;;;;19.60;11.83;;;9.80;1.00;;;;;;4976234;28;20256;-52
2022/03/26 01:43:00;;;;;;;20.03;11.57;;;9.80;1.00;;;;;;4977957;28;20249;-51
2022/03/26 01:45:28;;;;;;;22.10;12.50;;;9.80;1.00;;;;;;4976094;28;20301;-51
2022/03/26 01:47:56;;;;;;;22.37;11.50;;;9.80;1.00;;;;;;4977866;28;20650;-52
2022/03/26 01:50:24;;;;;;;19.13;11.93;;;10.00;1.00;;;;;;4975485;28;20233;-52
2022/03/26 01:52:51;;;;;;;21.37;12.33;;;9.90;1.00;;;;;;4978975;28;21299;-49
2022/03/26 01:55:19;;;;;;;20.63;11.33;;;9.80;1.00;;;;;;4975504;28;20207;-52
2022/03/26 01:57:46;;;;;;;22.73;11.57;;;9.80;1.00;;;;;;4974424;28;20658;-53
2022/03/26 02:00:13;;;;;;;19.80;12.50;;;9.80;1.00;;;;;;4974860;28;22047;-51
2022/03/26 02:02:43;;;;;;;23.57;12.30;;;9.80;1.00;;;;;;4974837;28;20245;-51
2022/03/26 02:05:13;;;;;;;18.60;11.60;;;9.80;1.00;;;;;;4975417;28;20567;-52
2022/03/26 02:07:42;;;;;;;23.57;12.30;;;9.70;1.00;;;;;;4977016;28;20702;-51
2022/03/26 02:10:14;;;;;;;31.23;12.57;;;9.70;1.00;;;;;;4976542;28;20205;-52
2022/03/26 02:12:42;;;;;;;20.77;13.00;;;9.70;1.00;;;;;;4975864;28;20264;-51
2022/03/26 02:15:09;;;;;;;22.97;12.47;;;9.70;1.00;;;;;;4976313;28;20260;-52
2022/03/26 02:17:37;;;;;;;22.20;11.93;;;9.70;1.00;;;;;;4976071;28;20247;-51
2022/03/26 02:20:07;;;;;;;23.57;12.10;;;9.60;1.00;;;;;;4976400;28;20205;-51
2022/03/26 02:22:35;;;;;;;26.50;13.30;;;9.70;1.00;;;;;;4975935;28;20213;-52
2022/03/26 02:25:03;;;;;;;26.43;12.17;;;9.70;1.00;;;;;;4977146;28;20293;-52
2022/03/26 02:27:30;;;;;;;21.43;11.60;;;9.70;1.00;;;;;;4977663;28;20557;-51
2022/03/26 02:29:57;;;;;;;23.13;12.20;;;9.60;1.00;;;;;;4977439;28;20230;-53
2022/03/26 02:32:28;;;;;;;31.33;12.53;;;9.60;1.00;;;;;;4976697;28;21504;-52
2022/03/26 02:34:56;;;;;;;22.27;12.73;;;9.60;1.00;;;;;;4976553;28;20951;-53
2022/03/26 02:37:30;;;;;;;24.53;12.17;;;9.50;1.00;;;;;;5005523;28;20219;-51
2022/03/26 02:39:57;;;;;;;21.77;10.83;;;9.60;1.00;;;;;;4975920;28;20546;-52
2022/03/26 02:42:24;;;;;;;24.27;12.83;;;9.50;1.00;;;;;;4979895;28;20259;-51
2022/03/26 02:44:52;;;;;;;24.47;14.07;;;9.50;50.10;;;;;;4974501;28;20290;-51
2022/03/26 02:47:18;;;;;;;26.03;13.33;;;9.40;99.90;;;;;;4976982;28;20346;-49
2022/03/26 02:49:45;;;;;;;22.13;13.30;;;9.30;99.90;;;;;;4976987;28;20653;-51
2022/03/26 02:52:12;;;;;;;18.47;11.20;;;9.40;99.90;;;;;;4977882;28;20224;-50
2022/03/26 02:54:39;;;;;;;21.30;13.33;;;9.30;99.90;;;;;;4977798;28;20577;-51
2022/03/26 02:57:06;;;;;;;21.67;12.67;;;9.30;99.90;;;;;;4977182;28;20586;-52
2022/03/26 02:59:33;;;;;;;19.97;11.70;;;9.30;99.90;;;;;;4976183;28;20734;-52
2022/03/26 03:01:59;;;;;;;20.23;12.50;;;9.30;99.90;;;;;;4978443;28;20276;-54
2022/03/26 03:04:27;;;;;;;23.40;12.77;;;9.30;99.90;;;;;;4977125;28;20194;-51
2022/03/26 03:06:54;;;;;;;19.40;12.20;;;9.10;1.00;;;;;;4975421;28;20279;-51
2022/03/26 03:09:20;;;;;;;21.53;12.00;;;9.20;1.00;;;;;;4977041;28;20758;-55
2022/03/26 03:11:48;;;;;;;27.43;12.17;;;9.20;1.00;;;;;;4978007;28;20670;-52
2022/03/26 03:14:16;;;;;;;20.40;12.47;;;9.20;1.00;;;;;;4977699;28;20209;-52
2022/03/26 03:16:43;;;;;;;23.93;12.13;;;9.10;1.00;;;;;;4975446;28;20230;-53
2022/03/26 03:19:10;;;;;;;22.70;13.17;;;9.10;1.00;;;;;;4976607;28;20210;-51
2022/03/26 03:21:37;;;;;;;28.63;13.90;;;9.20;99.90;;;;;;4976356;28;20681;-51
2022/03/26 03:24:04;;;;;;;24.57;13.30;;;9.10;1.00;;;;;;4977058;28;20632;-52
2022/03/26 03:26:31;;;;;;;23.80;13.57;;;9.00;1.00;;;;;;4974050;28;20553;-52
2022/03/26 03:28:59;;;;;;;21.83;12.03;;;9.00;1.00;;;;;;4974489;28;20210;-53
2022/03/26 03:31:28;;;;;;;19.23;12.13;;;9.10;1.00;;;;;;5007241;28;20224;-52
2022/03/26 03:33:56;;;;;;;22.47;12.37;;;9.10;1.00;;;;;;4978216;28;20247;-52
2022/03/26 03:36:23;;;;;;;21.17;12.07;;;8.90;1.00;;;;;;4979633;28;20220;-51
2022/03/26 03:38:50;;;;;;;21.83;12.70;;;9.00;1.00;;;;;;4979342;28;20202;-51
2022/03/26 03:41:17;;;;;;;25.27;14.27;;;8.80;1.00;;;;;;4976532;28;20553;-51
2022/03/26 03:43:44;;;;;;;22.93;12.53;;;8.80;1.00;;;;;;4979819;28;20198;-51
2022/03/26 03:46:11;;;;;;;21.43;13.03;;;8.70;1.00;;;;;;4979042;28;20208;-52
2022/03/26 03:48:38;;;;;;;22.77;13.83;;;8.70;60.50;;;;;;4978218;28;20576;-52
2022/03/26 03:51:05;;;;;;;28.57;13.83;;;8.80;1.00;;;;;;4979709;28;20691;-52
2022/03/26 03:53:32;;;;;;;24.00;12.87;;;8.70;16.10;;;;;;4981131;28;20202;-52
2022/03/26 03:55:59;;;;;;;23.60;13.57;;;8.60;99.90;;;;;;4976804;28;20309;-52
2022/03/26 03:58:26;;;;;;;23.53;12.90;;;8.80;99.90;;;;;;4979393;28;20208;-51
2022/03/26 04:00:55;;;;;;;23.70;13.50;;;8.70;99.90;;;;;;4975420;28;20219;-52
2022/03/26 04:03:23;;;;;;;25.73;12.80;;;8.70;99.90;;;;;;4976133;28;20205;-53
2022/03/26 04:05:50;;;;;;;23.47;13.87;;;8.70;99.90;;;;;;4977128;28;20207;-51
2022/03/26 04:08:17;;;;;;;24.10;12.83;;;8.70;20.70;;;;;;4979239;28;20356;-51
2022/03/26 04:10:43;;;;;;;29.43;14.57;;;8.80;1.00;;;;;;4976632;28;20258;-51
2022/03/26 04:13:10;;;;;;;25.47;12.87;;;8.80;1.00;;;;;;4979307;28;20207;-52
2022/03/26 04:15:37;;;;;;;22.03;13.57;;;8.80;1.00;;;;;;4978646;28;20292;-51
2022/03/26 04:18:04;;;;;;;27.90;13.87;;;8.70;90.60;;;;;;4975759;28;20296;-54
2022/03/26 04:20:31;;;;;;;24.00;13.87;;;8.80;1.00;;;;;;4977634;28;20208;-53
2022/03/26 04:22:58;;;;;;;23.77;14.00;;;8.70;1.00;;;;;;4978592;28;20350;-52
2022/03/26 04:25:25;;;;;;;30.93;14.10;;;8.60;1.00;;;;;;4980386;28;20212;-52
2022/03/26 04:27:52;;;;;;;24.07;13.57;;;8.70;1.00;;;;;;4992155;28;22239;-52
2022/03/26 04:30:20;;;;;;;27.63;14.50;;;8.70;52.70;;;;;;4980534;28;20644;-53
2022/03/26 04:32:47;;;;;;;24.77;13.30;;;8.60;99.90;;;;;;4977024;28;20292;-52
2022/03/26 04:35:14;;;;;;;24.97;13.23;;;8.70;99.90;;;;;;4982628;28;20603;-52
2022/03/26 04:37:41;;;;;;;24.50;13.57;;;8.70;1.00;;;;;;4980783;28;20339;-51
2022/03/26 04:40:11;;;;;;;25.60;14.13;;;8.80;1.00;;;;;;4980958;28;20263;-52
2022/03/26 04:42:40;;;;;;;29.30;14.57;;;8.60;1.00;;;;;;4981662;28;20709;-50
2022/03/26 04:45:10;;;;;;;24.23;14.20;;;8.50;99.90;;;;;;4981273;28;20655;-52
2022/03/26 04:47:38;;;;;;;26.53;14.97;;;8.60;99.90;;;;;;4980119;28;20203;-52
2022/03/26 04:50:06;;;;;;;27.03;14.47;;;8.50;99.90;;;;;;4980319;28;20209;-52
2022/03/26 04:52:33;;;;;;;25.00;15.53;;;8.60;99.90;;;;;;4978691;28;20254;-51
2022/03/26 04:55:01;;;;;;;28.13;14.70;;;8.60;54.10;;;;;;4980877;28;20210;-51
2022/03/26 04:57:27;;;;;;;25.87;13.90;;;8.60;99.90;;;;;;4978700;28;20634;-51
2022/03/26 04:59:55;;;;;;;24.47;14.10;;;8.60;99.90;;;;;;4980333;28;20630;-51
2022/03/26 05:02:22;;;;;;;24.60;13.37;;;8.50;99.90;;;;;;4980041;28;20312;-51
2022/03/26 05:04:49;;;;;;;22.77;13.63;;;8.50;99.90;;;;;;4979120;28;20214;-52
2022/03/26 05:10:01;;;;;;;30.67;15.43;;;8.50;99.90;;;;;;4976337;28;20708;-52
2022/03/26 05:12:28;;;;;;;26.93;14.50;;;8.60;99.90;;;;;;4977122;28;20254;-51
2022/03/26 05:14:55;;;;;;;28.97;15.23;;;8.50;99.90;;;;;;4979037;28;20279;-52
2022/03/26 05:17:21;;;;;;;25.40;14.20;;;8.50;1.00;;;;;;4980938;28;20651;-53
2022/03/26 05:19:48;;;;;;;23.43;14.80;;;8.50;1.00;;;;;;4978472;28;20213;-52
2022/03/26 05:22:15;;;;;;;25.70;14.93;;;8.30;1.00;;;;;;4980100;28;20253;-52
2022/03/26 05:24:42;;;;;;;31.10;14.67;;;8.20;1.00;;;;;;4980712;28;20568;-52
2022/03/26 05:27:09;;;;;;;28.03;15.73;;;8.20;1.00;;;;;;4979364;28;20204;-52
2022/03/26 05:29:36;;;;;;;26.23;13.43;;;8.20;1.00;;;;;;4978449;28;20548;-52
2022/03/26 05:32:04;;;;;;;27.40;14.40;;;8.10;1.00;;;;;;4978968;28;20270;-55
2022/03/26 05:34:31;;;;;;;30.63;15.60;;;8.10;1.00;;;;;;4977473;28;20207;-52
2022/03/26 05:36:58;;;;;;;30.90;15.83;;;8.10;1.00;;;;;;4977308;28;20236;-51
2022/03/26 05:39:25;;;;;;;28.37;15.40;;;8.10;1.00;;;;;;4977795;28;20666;-52
2022/03/26 05:41:52;;;;;;;29.57;16.27;;;8.20;1.00;;;;;;4978999;28;20650;-52
2022/03/26 05:44:19;;;;;;;28.13;14.77;;;8.00;1.00;;;;;;4979232;28;20565;-52
2022/03/26 05:46:46;;;;;;;28.67;15.53;;;7.90;1.00;;;;;;4978804;28;20727;-51
2022/03/26 05:49:13;;;;;;;28.97;15.20;;;8.00;1.00;;;;;;4978605;28;20222;-53
2022/03/26 05:51:40;;;;;;;24.67;14.07;;;7.90;1.00;;;;;;4978346;28;20674;-54
2022/03/26 05:54:06;;;;;;;29.07;15.10;;;8.10;1.00;;;;;;4974751;28;20273;-51
2022/03/26 05:56:36;;;;;;;29.63;14.50;;;8.20;1.00;;;;;;4975976;28;20300;-52
2022/03/26 05:59:09;;;;;;;28.17;15.07;;;8.10;1.00;;;;;;4977987;28;20214;-53
2022/03/26 06:01:37;;;;;;;32.40;15.83;;;8.30;1.00;;;;;;4977731;28;20206;-53
2022/03/26 06:04:04;;;;;;;29.50;15.00;;;8.20;1.00;;;;;;4977141;28;20258;-55
2022/03/26 06:06:30;;;;;;;26.77;15.13;;;8.10;1.00;;;;;;4980852;28;20242;-53
2022/03/26 06:08:57;;;;;;;31.17;15.73;;;8.20;1.00;;;;;;4978708;28;20231;-53
2022/03/26 06:11:24;;;;;;;30.23;16.07;;;8.20;99.90;;;;;;4975976;28;20199;-54
2022/03/26 06:13:51;;;;;;;27.93;15.20;;;8.20;99.90;;;;;;4978956;28;20291;-51
2022/03/26 06:16:17;;;;;;;28.37;15.80;;;8.20;1.00;;;;;;4976203;28;20222;-51
2022/03/26 06:18:44;;;;;;;28.63;15.17;;;8.10;1.00;;;;;;4976875;28;20204;-51
2022/03/26 06:21:11;;;;;;;31.80;15.60;;;8.10;1.00;;;;;;4974954;28;20202;-53
2022/03/26 06:23:38;;;;;;;30.63;15.60;;;8.20;99.90;;;;;;4976743;28;20286;-51
2022/03/26 06:26:05;;;;;;;27.80;16.17;;;8.30;99.90;;;;;;4977752;28;20290;-53
2022/03/26 06:28:32;;;;;;;26.27;15.70;;;8.30;99.90;;;;;;4976810;28;20206;-54
2022/03/26 06:30:59;;;;;;;30.70;15.67;;;8.40;99.90;;;;;;4977412;28;20665;-52
2022/03/26 06:33:26;;;;;;;31.17;15.57;;;8.40;98.80;;;;;;4975234;28;20662;-52
2022/03/26 06:35:52;;;;;;;25.87;14.77;;;8.30;37.80;;;;;;4977198;28;20686;-50
2022/03/26 06:38:19;;;;;;;26.73;15.27;;;8.50;47.70;;;;;;4973308;28;20218;-52
2022/03/26 06:40:46;;;;;;;27.60;15.37;;;8.60;1.00;;;;;;4978866;28;20382;-51
2022/03/26 06:43:13;;;;;;;34.13;16.47;;;8.70;1.00;;;;;;4978440;28;20247;-52
2022/03/26 06:45:40;;;;;;;28.40;15.87;;;8.80;1.00;;;;;;4992093;28;20231;-51
2022/03/26 06:48:08;;;;;;;29.53;16.23;;;8.90;99.90;;;;;;4977376;28;20286;-52
2022/03/26 06:50:34;;;;;;;28.37;16.57;;;9.00;99.90;;;;;;4976740;28;20200;-51
2022/03/26 06:53:01;;;;;;;29.53;15.60;;;9.10;99.90;;;;;;4978540;28;20242;-52
2022/03/26 06:55:28;;;;;;;30.77;16.03;;;9.30;1.00;;;;;;4974871;28;20204;-53
2022/03/26 06:57:55;;;;;;;30.53;15.33;;;9.40;1.00;;;;;;4975766;28;20229;-51
2022/03/26 07:00:21;;;;;;;27.67;16.30;;;9.40;1.00;;;;;;4972607;28;20263;-52
2022/03/26 07:02:49;;;;;;;30.13;16.87;;;9.60;1.00;;;;;;4977024;28;20218;-52
2022/03/26 07:05:16;;;;;;;30.30;16.83;;;9.80;1.00;;;;;;4973833;28;20206;-51
2022/03/26 07:07:42;;;;;;;28.07;16.20;;;9.90;1.00;;;;;;4979472;28;20782;-52
2022/03/26 07:10:10;;;;;;;34.30;17.67;;;10.20;1.00;;;;;;4981146;28;20228;-51
2022/03/26 07:12:36;;;;;;;26.23;16.57;;;10.60;99.90;;;;;;4981043;28;20248;-52
2022/03/26 07:15:05;;;;;;;31.33;16.93;;;10.90;20.10;;;;;;4980595;28;20227;-52
2022/03/26 07:17:31;;;;;;;30.53;17.17;;;11.20;1.00;;;;;;4980415;28;20204;-51
2022/03/26 07:19:58;;;;;;;29.23;16.63;;;11.20;1.00;;;;;;4975448;28;20674;-51
2022/03/26 07:22:29;;;;;;;27.63;16.13;;;11.10;1.00;;;;;;4979493;28;20215;-53
2022/03/26 07:24:56;;;;;;;31.07;17.30;;;11.40;1.00;;;;;;4979050;28;20198;-52
2022/03/26 07:27:23;;;;;;;28.20;16.70;;;11.50;1.00;;;;;;4979155;28;20210;-52
2022/03/26 07:29:50;;;;;;;26.37;16.30;;;11.50;1.00;;;;;;4979901;28;20656;-52
2022/03/26 07:32:17;;;;;;;27.80;16.50;;;11.70;1.00;;;;;;4978069;28;20194;-52
2022/03/26 07:34:44;;;;;;;31.77;16.37;;;12.00;99.90;;;;;;4977512;28;20212;-54
2022/03/26 07:37:11;;;;;;;33.73;16.77;;;12.20;1.00;;;;;;4977778;28;20285;-52
2022/03/26 07:39:37;;;;;;;30.47;17.10;;;12.40;99.90;;;;;;4977536;28;20229;-52
2022/03/26 07:42:05;;;;;;;29.73;16.43;;;12.50;99.90;;;;;;4978265;28;20200;-53
2022/03/26 07:44:31;;;;;;;26.07;16.03;;;12.50;99.90;;;;;;4979892;28;20301;-51
2022/03/26 07:46:58;;;;;;;32.00;16.13;;;12.90;99.90;;;;;;4980008;28;20947;-52
2022/03/26 07:49:25;;;;;;;27.70;15.50;;;13.00;99.90;;;;;;4977638;28;20515;-52
2022/03/26 07:51:52;;;;;;;32.40;16.43;;;13.20;1.00;;;;;;4980200;28;20216;-51
2022/03/26 07:54:19;;;;;;;30.20;16.60;;;13.40;1.00;;;;;;4979466;28;20318;-51
2022/03/26 07:56:47;;;;;;;25.20;16.27;;;13.10;83.60;;;;;;4977703;28;20198;-51
2022/03/26 07:59:14;;;;;;;29.20;17.27;;;13.20;44.00;;;;;;4976443;28;20212;-52
2022/03/26 08:01:41;;;;;;;25.30;16.03;;;13.70;1.00;;;;;;4978102;28;20798;-52
2022/03/26 08:04:08;;;;;;;32.33;17.57;;;13.60;1.00;;;;;;4982702;28;20227;-52
2022/03/26 08:06:35;;;;;;;30.27;16.03;;;13.90;1.00;;;;;;4980081;28;20769;-52
2022/03/26 08:09:03;;;;;;;27.03;15.83;;;14.40;1.00;;;;;;4979013;28;20525;-49
2022/03/26 08:11:29;;;;;;;29.37;16.83;;;14.70;1.00;;;;;;4974365;28;21488;-51
2022/03/26 08:13:56;;;;;;;25.63;16.53;;;14.90;1.00;;;;;;4976795;28;20212;-53
2022/03/26 08:16:23;;;;;;;28.00;17.13;;;14.50;1.00;;;;;;4975718;28;20597;-51
2022/03/26 08:18:50;;;;;;;32.33;16.87;;;14.80;1.00;;;;;;4971197;28;20235;-56
2022/03/26 08:21:17;;;;;;;30.53;17.50;;;15.00;1.00;;;;;;4973398;28;20623;-51
2022/03/26 08:23:44;;;;;;;28.80;17.73;;;15.20;1.00;;;;;;4974450;28;20220;-50
2022/03/26 08:26:22;;;;;;;24.60;16.33;;;15.00;1.00;;;;;;4976079;28;20221;-50
2022/03/26 08:28:51;;;;;;;26.47;16.00;;;15.10;1.00;;;;;;4975180;28;20206;-50
2022/03/26 08:31:18;;;;;;;27.63;17.53;;;15.30;1.00;;;;;;4977536;28;20677;-51
2022/03/26 08:33:45;;;;;;;25.60;15.93;;;15.50;1.00;;;;;;4976992;28;20657;-54
2022/03/26 08:36:13;;;;;;;29.23;16.50;;;15.10;1.00;;;;;;4992796;28;20256;-53
2022/03/26 08:38:44;;;;;;;26.80;16.87;;;15.60;99.90;;;;;;4979307;28;20216;-51
2022/03/26 08:41:13;;;;;;;24.43;14.93;;;15.50;1.00;;;;;;4976051;28;20291;-52
2022/03/26 08:43:40;;;;;;;28.80;16.07;;;15.70;99.90;;;;;;4977697;28;20295;-52
2022/03/26 08:46:07;;;;;;;29.90;16.47;;;16.20;99.90;;;;;;4975909;28;20278;-51
2022/03/26 08:48:34;;;;;;;30.47;16.87;;;16.30;99.90;;;;;;4975093;28;20706;-52
2022/03/26 08:51:02;;;;;;;25.60;16.63;;;16.20;99.90;;;;;;4972951;28;20755;-53
2022/03/26 08:53:29;;;;;;;27.70;17.07;;;16.70;99.90;;;;;;4977617;28;20739;-52
2022/03/26 08:55:56;;;;;;;30.30;17.23;;;16.20;99.90;;;;;;4975746;28;20204;-52
2022/03/26 08:58:24;;;;;;;27.87;16.77;;;16.20;99.90;;;;;;4974634;28;20217;-51
2022/03/26 09:00:52;;;;;;;25.97;15.33;;;16.70;99.90;;;;;;4976365;28;20224;-51
2022/03/26 09:03:21;;;;;;;26.37;16.20;;;17.20;99.90;;;;;;4976895;28;20217;-52
2022/03/26 09:05:55;;;;;;;28.83;16.47;;;17.50;99.90;;;;;;4975478;28;20207;-51
2022/03/26 09:08:22;;;;;;;24.77;15.97;;;17.90;99.90;;;;;;4973340;28;20267;-51
2022/03/26 09:10:49;;;;;;;26.20;15.53;;;18.50;83.40;;;;;;4976529;28;20231;-49
2022/03/26 09:13:16;;;;;;;24.67;15.97;;;17.40;86.60;;;;;;4972118;28;20303;-49
2022/03/26 09:15:43;;;;;;;28.40;15.40;;;18.00;74.90;;;;;;4970554;28;20298;-51
2022/03/26 09:18:10;;;;;;;21.33;14.80;;;18.50;18.90;;;;;;4970105;28;20221;-51
2022/03/26 09:20:38;;;;;;;23.83;15.13;;;18.00;1.00;;;;;;4972115;28;20592;-50
2022/03/26 09:23:06;;;;;;;27.73;16.67;;;18.30;1.00;;;;;;4973454;28;20223;-52
2022/03/26 09:25:34;;;;;;;25.87;15.77;;;18.90;1.00;;;;;;4977281;28;20964;-50
2022/03/26 09:28:01;;;;;;;23.67;15.03;;;18.50;1.00;;;;;;4973488;28;20212;-51
2022/03/26 09:30:28;;;;;;;22.77;14.93;;;18.50;1.00;;;;;;4975439;28;20330;-52
2022/03/26 09:32:55;;;;;;;31.67;16.60;;;18.60;1.00;;;;;;4977319;28;20258;-51
2022/03/26 09:35:22;;;;;;;26.70;16.43;;;19.10;1.00;;;;;;4976505;28;21052;-50
2022/03/26 09:37:49;;;;;;;28.07;17.20;;;18.70;1.00;;;;;;4976541;28;20214;-51
2022/03/26 09:40:16;;;;;;;28.30;17.07;;;18.60;12.10;;;;;;4976059;28;20735;-51
2022/03/26 09:42:43;;;;;;;27.30;18.47;;;18.60;1.70;;;;;;4971434;28;20542;-51
2022/03/26 09:45:10;;;;;;;28.80;18.20;;;18.70;39.60;;;;;;4978106;28;20248;-51
2022/03/26 09:47:38;;;;;;;29.03;18.77;;;18.20;99.90;;;;;;4977329;28;20213;-51
2022/03/26 09:50:07;;;;;;;33.60;18.53;;;18.10;99.90;;;;;;4977221;28;20204;-51
2022/03/26 09:52:35;;;;;;;28.70;18.27;;;18.10;51.80;;;;;;4980016;28;20324;-52
2022/03/26 09:55:11;;;;;;;29.30;17.63;;;17.50;99.90;;;;;;4979726;28;20660;-50
2022/03/26 09:57:40;;;;;;;28.83;16.83;;;18.00;93.60;;;;;;4978036;28;20210;-52
2022/03/26 10:00:09;;;;;;;28.40;16.50;;;18.00;3.10;;;;;;4979235;28;20223;-52
2022/03/26 10:02:37;;;;;;;29.80;17.23;;;18.60;1.00;;;;;;4976658;28;20277;-54
2022/03/26 10:05:04;;;;;;;32.17;18.50;;;18.70;1.00;;;;;;4976002;28;20290;-50
2022/03/26 10:07:31;;;;;;;32.73;17.70;;;18.10;1.00;;;;;;4978583;28;20255;-51
2022/03/26 10:10:01;;;;;;;31.73;17.73;;;18.00;1.00;;;;;;4982862;28;20198;-51
2022/03/26 10:12:28;;;;;;;26.53;16.27;;;18.00;54.40;;;;;;4972838;28;20279;-53
2022/03/26 10:15:04;;;;;;;29.70;16.83;;;18.50;40.80;;;;;;4976869;28;20299;-52
2022/03/26 10:17:34;;;;;;;27.87;16.40;;;18.50;54.10;;;;;;4972904;28;20257;-54
2022/03/26 10:20:12;;;;;;;25.20;15.13;;;19.00;30.90;;;;;;4975218;28;20381;-53
2022/03/26 10:22:41;;;;;;;30.50;15.90;;;19.00;36.30;;;;;;4977879;28;20242;-53
2022/03/26 10:25:14;;;;;;;23.00;14.20;;;19.00;33.10;;;;;;4976794;28;20249;-53
2022/03/26 10:27:45;;;;;;;25.37;15.60;;;19.10;24.80;;;;;;4976319;28;20199;-53
2022/03/26 10:32:38;;;;;;;25.53;14.23;;;19.20;40.50;;;;;;4977148;28;20257;-52
2022/03/26 10:33:30;;;;;;;20.07;13.23;;;19.20;21.00;;;;;;4974589;28;20238;-54
2022/03/26 10:35:59;;;;;;;19.70;11.97;;;18.50;56.80;;;;;;4977793;28;20284;-51
2022/03/26 10:38:34;;;;;;;18.23;12.93;;;18.50;99.90;;;;;;4978538;28;20219;-52
2022/03/26 10:41:08;;;;;;;18.53;11.43;;;19.20;64.80;;;;;;4978161;28;20285;-50
2022/03/26 10:43:41;;;;;;;19.13;11.10;;;19.20;31.60;;;;;;4977002;28;20217;-52
2022/03/26 10:46:08;;;;;;;18.03;12.40;;;19.20;38.60;;;;;;4977723;28;20266;-52
2022/03/26 10:48:37;;;;;;;17.03;10.53;;;19.20;94.20;;;;;;4975672;28;20202;-51
2022/03/26 10:51:13;;;;;;;17.57;10.47;;;19.70;60.00;;;;;;4972711;28;20198;-54
2022/03/26 10:53:49;;;;;;;16.83;10.50;;;20.00;4.40;;;;;;4965560;28;22406;-51
2022/03/26 10:56:16;;;;;;;15.43;10.93;;;19.10;77.20;;;;;;4972696;28;20300;-53
2022/03/26 10:58:43;;;;;;;14.73;10.00;;;18.80;99.90;;;;;;4973116;28;20760;-53
2022/03/26 11:01:12;;;;;;;16.03;9.73;;;19.30;99.90;;;;;;4972378;28;20329;-52
2022/03/26 11:03:40;;;;;;;15.50;10.10;;;19.10;99.90;;;;;;4970644;28;21333;-54
2022/03/26 11:06:10;;;;;;;15.73;10.07;;;19.50;99.90;;;;;;4972679;28;20226;-53
2022/03/26 11:08:38;;;;;;;13.07;8.63;;;20.00;99.90;;;;;;4973124;28;20268;-52
2022/03/26 11:11:09;;;;;;;13.90;9.30;;;19.70;49.90;;;;;;4970419;28;20209;-53
2022/03/26 11:13:51;;;;;;;12.63;8.57;;;19.70;43.20;;;;;;4967822;28;20312;-53
2022/03/26 11:16:41;;;;;;;15.23;9.30;;;20.00;88.30;;;;;;4966079;28;20205;-52
2022/03/26 11:19:08;;;;;;;17.07;10.43;;;20.10;83.90;;;;;;4971142;28;20276;-52
2022/03/26 11:21:55;;;;;;;16.30;11.13;;;19.90;80.80;;;;;;4971124;28;20232;-52
2022/03/26 11:24:44;;;;;;;15.53;9.33;;;20.10;92.70;;;;;;4971059;28;20220;-51
2022/03/26 11:27:11;;;;;;;13.50;9.43;;;20.60;42.50;;;;;;4970041;28;21001;-52
2022/03/26 11:30:11;;;;;;;15.00;10.03;;;21.00;1.00;;;;;;4974991;28;20205;-53
2022/03/26 11:32:43;;;;;;;13.80;9.87;;;20.70;1.00;;;;;;4971788;28;20297;-53
2022/03/26 11:35:16;;;;;;;14.87;9.90;;;20.40;1.00;;;;;;4965754;28;20579;-52
2022/03/26 11:37:57;;;;;;;13.57;9.03;;;20.50;1.00;;;;;;4969764;28;20377;-52
2022/03/26 11:40:41;;;;;;;15.03;10.90;;;20.80;1.00;;;;;;4972694;28;20217;-53
2022/03/26 11:43:07;;;;;;;10.87;8.93;;;20.60;1.00;;;;;;4976325;28;20256;-51
2022/03/26 11:51:27;;;;;;;15.67;11.07;;;21.70;1.00;;;;;;4970780;28;20489;-54
2022/03/26 11:54:04;;;;;;;15.17;10.37;;;21.20;1.00;;;;;;4974235;28;20838;-52
2022/03/26 11:56:32;;;;;;;14.20;10.03;;;21.70;1.00;;;;;;4976887;28;20517;-52
2022/03/26 11:59:17;;;;;;;14.40;10.27;;;21.20;1.00;;;;;;4980409;28;20297;-52
2022/03/26 12:01:49;;;;;;;15.83;10.33;;;21.80;1.00;;;;;;4972168;28;20289;-53
2022/03/26 12:04:46;;;;;;;12.03;9.43;;;21.80;1.00;;;;;;4970477;28;20317;-54
2022/03/26 12:07:16;;;;;;;15.87;10.83;;;21.70;1.00;;;;;;4973727;28;20238;-53
2022/03/26 12:09:43;;;;;;;18.27;11.67;;;20.90;1.00;;;;;;4973318;28;20296;-52
2022/03/26 12:12:10;;;;;;;15.80;10.07;;;21.30;1.00;;;;;;4975005;28;20306;-52
2022/03/26 12:15:10;;;;;;;14.27;10.30;;;21.90;1.00;;;;;;4978973;28;20198;-54
2022/03/26 12:17:45;;;;;;;16.67;11.27;;;22.40;1.00;;;;;;4976549;28;20345;-53
2022/03/26 12:20:26;;;;;;;16.50;11.70;;;22.20;1.00;;;;;;4975798;28;20226;-52
2022/03/26 12:23:10;;;;;;;18.63;11.83;;;22.20;1.00;;;;;;4978605;28;20210;-52
2022/03/26 12:25:39;;;;;;;17.63;12.93;;;22.00;1.00;;;;;;4976408;28;20222;-52
2022/03/26 12:28:06;;;;;;;15.20;10.97;;;21.70;1.00;;;;;;4976841;28;20374;-52
2022/03/26 12:30:34;;;;;;;17.60;11.70;;;21.20;1.00;;;;;;4973559;28;20300;-53
2022/03/26 12:33:07;;;;;;;17.37;10.80;;;21.30;1.00;;;;;;4976003;28;20600;-53
2022/03/26 12:35:34;;;;;;;16.40;11.00;;;21.40;1.00;;;;;;4974484;28;20253;-54
2022/03/26 12:38:03;;;;;;;17.70;11.87;;;21.10;1.00;;;;;;4974890;28;20651;-54
2022/03/26 12:40:32;;;;;;;15.13;11.53;;;21.40;1.00;;;;;;4977122;28;20236;-51
2022/03/26 12:42:59;;;;;;;16.20;12.13;;;21.50;1.00;;;;;;4973502;28;20276;-55
2022/03/26 12:45:30;;;;;;;19.63;12.27;;;21.40;1.00;;;;;;4977648;28;20694;-54
2022/03/26 12:47:56;;;;;;;16.67;12.43;;;22.30;1.00;;;;;;4972900;28;20245;-53
2022/03/26 12:50:25;;;;;;;16.57;12.70;;;21.90;1.00;;;;;;4973753;28;20616;-53
2022/03/26 12:52:52;;;;;;;15.93;11.10;;;21.60;1.00;;;;;;4977093;28;20607;-52
2022/03/26 12:55:19;;;;;;;14.87;11.43;;;21.80;1.00;;;;;;4976206;28;20661;-52